sensor_id;sensor_type;location;lat;lon;timestamp;temperature;humidity
16968;DHT22;64862;54.398;10.126;2023-04-03T00:02:24;1.30;99.90
16968;DHT22;64862;54.398;10.126;2023-04-03T00:12:27;1.30;99.90
16968;DHT22;64862;54.398;10.126;2023-04-03T00:22:29;1.20;99.90
16968;DHT22;64862;54.398;10.126;2023-04-03T00:32:33;1.10;99.90
16968;DHT22;64862;54.398;10.126;2023-04-03T00:42:35;1.10;99.90
16968;DHT22;64862;54.398;10.126;2023-04-03T00:52:39;1.00;99.90
16968;DHT22;64862;54.398;10.126;2023-04-03T01:02:41;1.00;99.90
16968;DHT22;64862;54.398;10.126;2023-04-03T01:12:49;0.90;99.90
16968;DHT22;64862;54.398;10.126;2023-04-03T01:22:56;0.80;99.90
16968;DHT22;64862;54.398;10.126;2023-04-03T01:33:02;0.80;99.90
16968;DHT22;64862;54.398;10.126;2023-04-03T01:43:05;0.70;99.90
16968;DHT22;64862;54.398;10.126;2023-04-03T01:53:08;0.60;99.90
16968;DHT22;64862;54.398;10.126;2023-04-03T02:03:10;0.50;99.90
16968;DHT22;64862;54.398;10.126;2023-04-03T02:13:14;0.30;99.90
16968;DHT22;64862;54.398;10.126;2023-04-03T02:23:16;0.30;99.90
16968;DHT22;64862;54.398;10.126;2023-04-03T02:33:20;0.20;99.90
16968;DHT22;64862;54.398;10.126;2023-04-03T02:43:22;0.30;99.90
16968;DHT22;64862;54.398;10.126;2023-04-03T02:53:25;0.20;99.90
16968;DHT22;64862;54.398;10.126;2023-04-03T03:03:28;0.10;99.90
16968;DHT22;64862;54.398;10.126;2023-04-03T03:13:31;0.10;99.90
16968;DHT22;64862;54.398;10.126;2023-04-03T03:23:33;0.10;99.90
16968;DHT22;64862;54.398;10.126;2023-04-03T03:33:37;0.10;99.90
16968;DHT22;64862;54.398;10.126;2023-04-03T03:43:39;0.30;99.90
16968;DHT22;64862;54.398;10.126;2023-04-03T03:53:44;0.10;99.90
16968;DHT22;64862;54.398;10.126;2023-04-03T04:03:49;-0.10;99.90
16968;DHT22;64862;54.398;10.126;2023-04-03T04:13:56;-0.30;99.90
16968;DHT22;64862;54.398;10.126;2023-04-03T04:24:01;-0.10;99.90
16968;DHT22;64862;54.398;10.126;2023-04-03T04:34:05;-0.10;99.90
16968;DHT22;64862;54.398;10.126;2023-04-03T04:44:08;-0.20;99.90
16968;DHT22;64862;54.398;10.126;2023-04-03T04:54:12;-0.20;99.90
16968;DHT22;64862;54.398;10.126;2023-04-03T05:04:14;-0.20;99.90
16968;DHT22;64862;54.398;10.126;2023-04-03T05:14:20;-0.10;99.90
16968;DHT22;64862;54.398;10.126;2023-04-03T05:24:22;-0.10;99.90
16968;DHT22;64862;54.398;10.126;2023-04-03T05:34:25;-0.20;99.90
16968;DHT22;64862;54.398;10.126;2023-04-03T05:44:29;0.10;99.90
16968;DHT22;64862;54.398;10.126;2023-04-03T05:54:33;0.40;99.90
16968;DHT22;64862;54.398;10.126;2023-04-03T06:04:41;0.60;99.90
16968;DHT22;64862;54.398;10.126;2023-04-03T06:14:45;1.00;99.90
16968;DHT22;64862;54.398;10.126;2023-04-03T06:24:48;1.60;99.90
16968;DHT22;64862;54.398;10.126;2023-04-03T06:34:51;2.70;99.90
16968;DHT22;64862;54.398;10.126;2023-04-03T06:44:54;3.80;99.90
16968;DHT22;64862;54.398;10.126;2023-04-03T06:54:57;5.00;99.90
16968;DHT22;64862;54.398;10.126;2023-04-03T07:05:00;6.00;99.90
16968;DHT22;64862;54.398;10.126;2023-04-03T07:15:04;6.20;99.90
16968;DHT22;64862;54.398;10.126;2023-04-03T07:25:07;6.80;99.90
16968;DHT22;64862;54.398;10.126;2023-04-03T07:35:10;7.20;99.90
16968;DHT22;64862;54.398;10.126;2023-04-03T07:45:12;7.50;99.90
16968;DHT22;64862;54.398;10.126;2023-04-03T07:55:16;7.70;99.90
16968;DHT22;64862;54.398;10.126;2023-04-03T08:05:18;7.90;99.90
16968;DHT22;64862;54.398;10.126;2023-04-03T08:15:21;8.40;99.90
16968;DHT22;64862;54.398;10.126;2023-04-03T08:25:23;9.40;99.90
16968;DHT22;64862;54.398;10.126;2023-04-03T08:35:27;11.70;99.90
16968;DHT22;64862;54.398;10.126;2023-04-03T08:45:38;13.50;99.90
16968;DHT22;64862;54.398;10.126;2023-04-03T08:55:45;17.30;99.90
16968;DHT22;64862;54.398;10.126;2023-04-03T09:05:50;15.70;99.80
16968;DHT22;64862;54.398;10.126;2023-04-03T09:15:55;19.70;98.30
16968;DHT22;64862;54.398;10.126;2023-04-03T09:26:02;21.50;93.00
16968;DHT22;64862;54.398;10.126;2023-04-03T09:36:07;20.80;92.70
16968;DHT22;64862;54.398;10.126;2023-04-03T09:46:33;20.40;92.90
16968;DHT22;64862;54.398;10.126;2023-04-03T09:56:37;17.40;92.90
16968;DHT22;64862;54.398;10.126;2023-04-03T10:06:39;17.10;94.00
16968;DHT22;64862;54.398;10.126;2023-04-03T10:16:53;14.10;99.10
16968;DHT22;64862;54.398;10.126;2023-04-03T10:27:03;12.40;99.90
16968;DHT22;64862;54.398;10.126;2023-04-03T10:37:20;12.90;99.90
16968;DHT22;64862;54.398;10.126;2023-04-03T10:47:30;14.40;99.90
16968;DHT22;64862;54.398;10.126;2023-04-03T10:57:35;15.60;98.40
16968;DHT22;64862;54.398;10.126;2023-04-03T11:07:40;14.90;97.20
16968;DHT22;64862;54.398;10.126;2023-04-03T11:17:45;14.20;91.70
16968;DHT22;64862;54.398;10.126;2023-04-03T11:27:51;11.00;99.90
16968;DHT22;64862;54.398;10.126;2023-04-03T11:37:56;9.10;99.90
16968;DHT22;64862;54.398;10.126;2023-04-03T11:48:00;8.70;99.90
16968;DHT22;64862;54.398;10.126;2023-04-03T11:58:12;8.50;99.90
16968;DHT22;64862;54.398;10.126;2023-04-03T12:08:24;8.00;99.90
16968;DHT22;64862;54.398;10.126;2023-04-03T12:19:02;8.10;99.90
16968;DHT22;64862;54.398;10.126;2023-04-03T12:29:15;7.70;99.90
16968;DHT22;64862;54.398;10.126;2023-04-03T12:39:37;7.30;99.90
16968;DHT22;64862;54.398;10.126;2023-04-03T12:49:44;7.40;99.90
16968;DHT22;64862;54.398;10.126;2023-04-03T12:59:48;7.40;99.90
16968;DHT22;64862;54.398;10.126;2023-04-03T13:09:58;7.20;99.90
16968;DHT22;64862;54.398;10.126;2023-04-03T13:20:15;7.10;99.90
16968;DHT22;64862;54.398;10.126;2023-04-03T13:30:23;7.20;99.90
16968;DHT22;64862;54.398;10.126;2023-04-03T13:40:27;7.10;99.90
16968;DHT22;64862;54.398;10.126;2023-04-03T13:50:29;7.10;99.90
16968;DHT22;64862;54.398;10.126;2023-04-03T14:00:49;7.00;99.90
16968;DHT22;64862;54.398;10.126;2023-04-03T14:10:52;6.90;99.90
16968;DHT22;64862;54.398;10.126;2023-04-03T14:20:57;7.00;99.90
16968;DHT22;64862;54.398;10.126;2023-04-03T14:30:59;6.90;99.90
16968;DHT22;64862;54.398;10.126;2023-04-03T14:41:03;6.80;99.90
16968;DHT22;64862;54.398;10.126;2023-04-03T14:51:05;6.90;99.90
16968;DHT22;64862;54.398;10.126;2023-04-03T15:01:10;6.90;99.90
16968;DHT22;64862;54.398;10.126;2023-04-03T15:11:13;6.90;99.90
16968;DHT22;64862;54.398;10.126;2023-04-03T15:21:16;6.60;99.90
16968;DHT22;64862;54.398;10.126;2023-04-03T15:31:18;6.60;99.90
16968;DHT22;64862;54.398;10.126;2023-04-03T15:41:21;6.70;99.90
16968;DHT22;64862;54.398;10.126;2023-04-03T15:51:23;6.60;99.90
16968;DHT22;64862;54.398;10.126;2023-04-03T16:01:27;6.40;99.90
16968;DHT22;64862;54.398;10.126;2023-04-03T16:11:29;6.60;99.90
16968;DHT22;64862;54.398;10.126;2023-04-03T16:21:33;6.40;99.90
16968;DHT22;64862;54.398;10.126;2023-04-03T16:31:35;6.50;99.90
16968;DHT22;64862;54.398;10.126;2023-04-03T16:41:38;6.50;99.90
16968;DHT22;64862;54.398;10.126;2023-04-03T16:51:41;6.30;99.90
16968;DHT22;64862;54.398;10.126;2023-04-03T17:01:44;6.30;99.90
16968;DHT22;64862;54.398;10.126;2023-04-03T17:11:46;6.10;99.90
16968;DHT22;64862;54.398;10.126;2023-04-03T17:21:50;6.10;99.90
16968;DHT22;64862;54.398;10.126;2023-04-03T17:31:52;5.70;99.90
16968;DHT22;64862;54.398;10.126;2023-04-03T17:41:56;5.70;99.90
16968;DHT22;64862;54.398;10.126;2023-04-03T17:51:58;5.60;99.90
16968;DHT22;64862;54.398;10.126;2023-04-03T18:02:01;5.40;99.90
16968;DHT22;64862;54.398;10.126;2023-04-03T18:12:05;5.30;99.90
16968;DHT22;64862;54.398;10.126;2023-04-03T18:22:12;5.10;99.90
16968;DHT22;64862;54.398;10.126;2023-04-03T18:32:16;5.00;99.90
16968;DHT22;64862;54.398;10.126;2023-04-03T18:42:22;4.60;99.90
16968;DHT22;64862;54.398;10.126;2023-04-03T18:52:25;4.40;99.90
16968;DHT22;64862;54.398;10.126;2023-04-03T19:02:28;4.10;99.90
16968;DHT22;64862;54.398;10.126;2023-04-03T19:12:30;3.90;99.90
16968;DHT22;64862;54.398;10.126;2023-04-03T19:22:34;3.80;99.90
16968;DHT22;64862;54.398;10.126;2023-04-03T19:32:36;3.50;99.90
16968;DHT22;64862;54.398;10.126;2023-04-03T19:42:39;3.40;99.90
16968;DHT22;64862;54.398;10.126;2023-04-03T19:52:42;3.30;99.90
16968;DHT22;64862;54.398;10.126;2023-04-03T20:02:46;3.20;99.90
16968;DHT22;64862;54.398;10.126;2023-04-03T20:12:48;3.00;99.90
16968;DHT22;64862;54.398;10.126;2023-04-03T20:22:52;2.90;99.90
16968;DHT22;64862;54.398;10.126;2023-04-03T20:32:56;2.80;99.90
16968;DHT22;64862;54.398;10.126;2023-04-03T20:43:00;2.80;99.90
16968;DHT22;64862;54.398;10.126;2023-04-03T20:53:02;2.70;99.90
16968;DHT22;64862;54.398;10.126;2023-04-03T21:03:06;2.60;99.90
16968;DHT22;64862;54.398;10.126;2023-04-03T21:23:49;2.90;99.90
16968;DHT22;64862;54.398;10.126;2023-04-03T21:33:51;2.80;99.90
16968;DHT22;64862;54.398;10.126;2023-04-03T21:43:54;2.70;99.90
16968;DHT22;64862;54.398;10.126;2023-04-03T21:53:56;2.40;99.90
16968;DHT22;64862;54.398;10.126;2023-04-03T22:04:00;2.30;99.90
16968;DHT22;64862;54.398;10.126;2023-04-03T22:14:02;2.20;99.90
16968;DHT22;64862;54.398;10.126;2023-04-03T22:24:06;2.10;99.90
16968;DHT22;64862;54.398;10.126;2023-04-03T22:34:08;2.10;99.90
16968;DHT22;64862;54.398;10.126;2023-04-03T22:44:12;2.00;99.90
16968;DHT22;64862;54.398;10.126;2023-04-03T22:54:14;1.90;99.90
16968;DHT22;64862;54.398;10.126;2023-04-03T23:04:17;1.80;99.90
16968;DHT22;64862;54.398;10.126;2023-04-03T23:14:19;1.70;99.90
16968;DHT22;64862;54.398;10.126;2023-04-03T23:24:23;1.70;99.90
16968;DHT22;64862;54.398;10.126;2023-04-03T23:34:26;1.50;99.90
16968;DHT22;64862;54.398;10.126;2023-04-03T23:44:30;1.50;99.90
16968;DHT22;64862;54.398;10.126;2023-04-03T23:54:32;1.40;99.90
